createdAt,value
2018-10-11T00:00:51.345Z,27.87
2018-10-11T00:03:21.244Z,30.07
2018-10-11T00:05:50.117Z,28.10
2018-10-11T00:08:18.692Z,24.97
2018-10-11T00:10:51.756Z,25.77
2018-10-11T00:13:21.912Z,26.27
2018-10-11T00:15:52.691Z,27.33
2018-10-11T00:18:22.605Z,27.07
2018-10-11T00:20:52.093Z,27.03
2018-10-11T00:23:22.545Z,27.63
2018-10-11T00:25:51.989Z,25.13
2018-10-11T00:28:21.703Z,26.83
2018-10-11T00:30:50.897Z,27.87
2018-10-11T00:33:20.060Z,24.17
2018-10-11T00:35:48.676Z,25.33
2018-10-11T00:38:17.212Z,28.83
2018-10-11T00:40:45.720Z,26.73
2018-10-11T00:43:14.257Z,25.93
2018-10-11T00:45:42.777Z,24.17
2018-10-11T00:48:11.313Z,25.97
2018-10-11T00:50:39.816Z,29.57
2018-10-11T00:53:08.361Z,27.93
2018-10-11T00:55:36.928Z,28.53
2018-10-11T00:58:05.801Z,25.50
2018-10-11T01:00:34.317Z,26.57
2018-10-11T01:03:02.861Z,24.33
2018-10-11T01:05:31.367Z,25.53
2018-10-11T01:07:59.912Z,28.07
2018-10-11T01:10:28.413Z,26.83
2018-10-11T01:12:56.955Z,25.40
2018-10-11T01:15:25.481Z,25.23
2018-10-11T01:17:54.753Z,26.97
2018-10-11T01:20:23.325Z,27.53
2018-10-11T01:22:51.916Z,25.70
2018-10-11T01:25:20.625Z,29.43
2018-10-11T01:27:49.501Z,30.17
2018-10-11T01:30:18.160Z,29.10
2018-10-11T01:32:46.705Z,27.93
2018-10-11T01:35:15.217Z,30.17
2018-10-11T01:37:43.765Z,24.80
2018-10-11T01:40:12.304Z,27.07
2018-10-11T01:42:40.840Z,27.27
2018-10-11T01:45:10.048Z,24.77
2018-10-11T01:47:39.265Z,24.80
2018-10-11T01:50:07.808Z,22.23
2018-10-11T01:52:36.377Z,24.60
2018-10-11T01:55:04.941Z,21.83
2018-10-11T01:57:33.470Z,27.13
2018-10-11T02:00:02.010Z,23.07
2018-10-11T02:02:30.596Z,24.57
2018-10-11T02:04:59.138Z,23.20
2018-10-11T02:07:27.667Z,23.80
2018-10-11T02:09:56.201Z,26.17
2018-10-11T02:12:25.596Z,24.87
2018-10-11T02:14:54.199Z,21.97
2018-10-11T02:17:22.705Z,23.57
2018-10-11T02:19:51.252Z,23.90
2018-10-11T02:22:19.769Z,25.90
2018-10-11T02:24:48.320Z,25.00
2018-10-11T02:27:16.862Z,25.30
2018-10-11T02:29:45.465Z,27.03
2018-10-11T02:32:14.272Z,25.10
2018-10-11T02:34:42.824Z,25.50
2018-10-11T02:37:11.438Z,22.83
2018-10-11T02:39:40.025Z,26.53
2018-10-11T02:42:08.540Z,20.70
2018-10-11T02:44:37.085Z,21.73
2018-10-11T02:47:05.609Z,23.07
2018-10-11T02:49:34.152Z,21.27
2018-10-11T02:52:02.656Z,24.57
2018-10-11T02:54:31.234Z,27.10
2018-10-11T02:57:03.709Z,24.83
2018-10-11T02:59:35.897Z,22.53
2018-10-11T03:02:07.905Z,26.60
2018-10-11T03:04:37.149Z,23.43
2018-10-11T03:07:07.775Z,23.03
2018-10-11T03:09:36.330Z,24.47
2018-10-11T03:12:04.874Z,23.93
2018-10-11T03:14:33.442Z,21.97
2018-10-11T03:17:01.948Z,20.33
2018-10-11T03:19:30.501Z,21.37
2018-10-11T03:21:59.260Z,23.77
2018-10-11T03:24:27.816Z,24.97
2018-10-11T03:26:58.668Z,24.23
2018-10-11T03:29:27.705Z,22.87
2018-10-11T03:31:56.450Z,22.70
2018-10-11T03:34:25.681Z,21.33
2018-10-11T03:36:54.202Z,24.10
2018-10-11T03:39:22.758Z,21.87
2018-10-11T03:41:51.305Z,23.30
2018-10-11T03:44:19.864Z,22.73
2018-10-11T03:46:48.392Z,29.97
2018-10-11T03:49:16.917Z,24.57
2018-10-11T03:51:45.485Z,23.70
2018-10-11T03:54:14.009Z,27.33
2018-10-11T03:56:42.573Z,26.47
2018-10-11T03:59:11.172Z,23.20
2018-10-11T04:01:39.736Z,23.00
2018-10-11T04:04:08.281Z,26.67
2018-10-11T04:06:36.845Z,24.13
2018-10-11T04:09:06.721Z,24.47
2018-10-11T04:11:35.932Z,26.20
2018-10-11T04:14:04.466Z,26.00
2018-10-11T04:16:33.025Z,24.97
2018-10-11T04:19:01.548Z,21.77
2018-10-11T04:21:30.140Z,25.40
2018-10-11T04:23:58.666Z,26.77
2018-10-11T04:26:27.224Z,27.90
2018-10-11T04:28:55.741Z,27.53
2018-10-11T04:31:24.300Z,26.83
2018-10-11T04:33:52.817Z,29.20
2018-10-11T04:36:21.373Z,24.10
2018-10-11T04:38:49.997Z,23.20
2018-10-11T04:41:18.541Z,24.33
2018-10-11T04:43:47.053Z,26.50
2018-10-11T04:46:15.648Z,27.33
2018-10-11T04:48:44.169Z,23.67
2018-10-11T04:51:12.730Z,25.37
2018-10-11T04:53:41.320Z,28.03
2018-10-11T04:56:09.873Z,26.13
2018-10-11T04:58:38.461Z,27.17
2018-10-11T05:01:07.128Z,25.83
2018-10-11T05:03:35.644Z,25.17
2018-10-11T05:06:04.345Z,27.90
2018-10-11T05:08:32.856Z,29.77
2018-10-11T05:11:01.753Z,25.47
2018-10-11T05:13:38.857Z,24.97
2018-10-11T05:16:07.436Z,24.40
2018-10-11T05:18:36.753Z,24.60
2018-10-11T05:21:05.364Z,23.57
2018-10-11T05:23:33.884Z,25.83
2018-10-11T05:26:02.445Z,25.43
2018-10-11T05:28:30.956Z,26.97
2018-10-11T05:30:59.496Z,25.63
2018-10-11T05:33:28.605Z,26.00
2018-10-11T05:35:57.149Z,21.30
2018-10-11T05:38:25.904Z,18.17
2018-10-11T05:40:55.936Z,24.20
2018-10-11T05:43:24.579Z,25.30
2018-10-11T05:45:56.608Z,22.57
2018-10-11T05:48:26.469Z,22.27
2018-10-11T05:50:55.235Z,26.03
2018-10-11T05:53:24.109Z,25.37
2018-10-11T05:55:52.820Z,24.73
2018-10-11T05:58:21.744Z,20.73
2018-10-11T06:00:50.308Z,23.80
2018-10-11T06:03:19.090Z,24.37
2018-10-11T06:05:47.613Z,28.37
2018-10-11T06:08:16.168Z,29.83
2018-10-11T06:10:45.262Z,27.17
2018-10-11T06:13:14.102Z,26.63
2018-10-11T06:15:42.868Z,23.80
2018-10-11T06:18:12.124Z,20.83
2018-10-11T06:20:40.941Z,22.43
2018-10-11T06:23:09.511Z,24.93
2018-10-11T06:25:38.795Z,23.43
2018-10-11T06:28:07.754Z,22.10
2018-10-11T06:30:36.614Z,25.67
2018-10-11T06:33:05.188Z,30.53
2018-10-11T06:35:34.016Z,27.30
2018-10-11T06:38:03.393Z,29.30
2018-10-11T06:40:32.549Z,30.80
2018-10-11T06:43:01.120Z,33.80
2018-10-11T06:45:32.444Z,31.57
2018-10-11T06:48:03.681Z,34.03
2018-10-11T06:50:32.356Z,36.27
2018-10-11T06:53:01.448Z,32.93
2018-10-11T06:55:29.980Z,31.57
2018-10-11T06:57:58.549Z,30.57
2018-10-11T07:00:27.148Z,29.27
2018-10-11T07:02:55.772Z,32.17
2018-10-11T07:05:24.300Z,33.87
2018-10-11T07:07:52.882Z,32.43
2018-10-11T07:10:21.487Z,33.43
2018-10-11T07:12:50.057Z,34.40
2018-10-11T07:15:18.609Z,33.83
2018-10-11T07:17:47.178Z,32.87
2018-10-11T07:20:15.688Z,29.80
2018-10-11T07:22:44.276Z,32.00
2018-10-11T07:25:12.887Z,32.43
2018-10-11T07:27:41.637Z,34.50
2018-10-11T07:30:10.328Z,31.60
2018-10-11T07:32:38.901Z,33.83
2018-10-11T07:35:07.465Z,35.13
2018-10-11T07:37:36.264Z,30.47
2018-10-11T07:40:04.917Z,33.57
2018-10-11T07:42:41.926Z,32.50
2018-10-11T07:45:13.010Z,29.40
2018-10-11T07:47:49.411Z,30.67
2018-10-11T07:50:19.135Z,33.90
2018-10-11T07:52:51.015Z,30.97
2018-10-11T07:55:19.717Z,31.47
2018-10-11T07:57:48.272Z,29.97
2018-10-11T08:00:16.896Z,33.40
2018-10-11T08:02:46.184Z,31.77
2018-10-11T08:05:14.734Z,29.63
2018-10-11T08:07:43.338Z,29.63
2018-10-11T08:10:12.173Z,30.50
2018-10-11T08:12:40.693Z,29.27
2018-10-11T08:15:09.352Z,30.37
2018-10-11T08:17:38.242Z,30.43
2018-10-11T08:20:11.856Z,31.03
2018-10-11T08:22:40.973Z,28.50
2018-10-11T08:25:09.707Z,29.13
2018-10-11T08:27:38.379Z,30.83
2018-10-11T08:30:13.707Z,28.53
2018-10-11T08:32:42.545Z,29.87
2018-10-11T08:35:11.532Z,29.13
2018-10-11T08:37:40.194Z,29.57
2018-10-11T08:40:08.768Z,30.57
2018-10-11T08:42:45.405Z,31.47
2018-10-11T08:45:14.037Z,31.17
2018-10-11T08:47:42.632Z,30.53
2018-10-11T08:50:11.239Z,31.93
2018-10-11T08:52:39.805Z,28.87
2018-10-11T08:55:08.485Z,29.97
2018-10-11T08:57:37.292Z,28.30
2018-10-11T09:00:07.495Z,28.70
2018-10-11T09:02:36.084Z,28.33
2018-10-11T09:05:04.852Z,27.53
2018-10-11T09:07:38.982Z,25.60
2018-10-11T09:10:07.841Z,29.97
2018-10-11T09:12:36.384Z,27.27
2018-10-11T09:15:05.033Z,28.30
2018-10-11T09:17:33.560Z,29.63
2018-10-11T09:20:02.150Z,29.43
2018-10-11T09:22:30.719Z,29.73
2018-10-11T09:24:59.312Z,28.13
2018-10-11T09:27:27.837Z,30.60
2018-10-11T09:29:56.425Z,30.70
2018-10-11T09:32:24.967Z,29.60
2018-10-11T09:34:53.536Z,28.97
2018-10-11T09:37:22.068Z,30.03
2018-10-11T09:39:50.653Z,29.63
2018-10-11T09:42:19.196Z,29.10
2018-10-11T09:44:48.316Z,28.73
2018-10-11T09:47:18.456Z,28.80
2018-10-11T09:49:49.058Z,29.40
2018-10-11T09:52:18.575Z,26.23
2018-10-11T09:54:47.164Z,27.23
2018-10-11T09:57:36.429Z,26.47
2018-10-11T10:00:11.797Z,26.60
2018-10-11T10:02:40.368Z,27.40
2018-10-11T10:05:09.325Z,26.30
2018-10-11T10:07:37.912Z,28.37
2018-10-11T10:10:06.962Z,28.90
2018-10-11T10:12:37.040Z,26.47
2018-10-11T10:15:06.628Z,27.77
2018-10-11T10:17:37.036Z,27.30
2018-10-11T10:20:07.060Z,26.97
2018-10-11T10:22:35.672Z,26.73
2018-10-11T10:25:04.384Z,27.63
2018-10-11T10:27:33.472Z,29.07
2018-10-11T10:30:06.029Z,28.40
2018-10-11T10:32:34.574Z,25.77
2018-10-11T10:35:03.169Z,25.87
2018-10-11T10:37:31.696Z,26.10
2018-10-11T10:40:00.463Z,24.87
2018-10-11T10:42:31.153Z,24.47
2018-10-11T10:44:59.893Z,23.60
2018-10-11T10:47:28.545Z,24.43
2018-10-11T10:49:57.097Z,22.30
2018-10-11T10:52:25.832Z,21.30
2018-10-11T10:54:54.381Z,20.17
2018-10-11T10:57:23.018Z,20.83
2018-10-11T10:59:51.573Z,19.90
2018-10-11T11:02:20.137Z,20.57
2018-10-11T11:04:55.037Z,20.17
2018-10-11T11:07:23.673Z,19.37
2018-10-11T11:09:52.213Z,18.87
2018-10-11T11:12:20.769Z,16.13
2018-10-11T11:14:49.365Z,16.70
2018-10-11T11:17:18.080Z,15.97
2018-10-11T11:19:46.620Z,16.40
2018-10-11T11:22:15.169Z,16.50
2018-10-11T11:24:47.965Z,16.50
2018-10-11T11:27:23.741Z,16.77
2018-10-11T11:29:56.599Z,15.90
2018-10-11T11:32:27.296Z,16.73
2018-10-11T11:34:57.504Z,16.10
2018-10-11T11:37:27.465Z,15.50
2018-10-11T11:40:00.348Z,15.80
2018-10-11T11:42:31.713Z,17.43
2018-10-11T11:45:00.442Z,15.93
2018-10-11T11:47:33.747Z,16.30
2018-10-11T11:50:05.224Z,15.93
2018-10-11T11:52:38.939Z,16.90
2018-10-11T11:55:09.718Z,16.17
2018-10-11T11:57:43.488Z,15.93
2018-10-11T12:00:15.046Z,16.67
2018-10-11T12:02:44.452Z,16.93
2018-10-11T12:05:16.788Z,16.90
2018-10-11T12:07:45.885Z,15.00
2018-10-11T12:10:14.460Z,15.67
2018-10-11T12:13:05.523Z,14.83
2018-10-11T12:15:38.515Z,13.97
2018-10-11T12:18:09.639Z,13.63
2018-10-11T12:20:41.662Z,12.37
2018-10-11T12:23:14.511Z,10.83
2018-10-11T12:25:44.500Z,11.40
2018-10-11T12:28:15.201Z,10.63
2018-10-11T12:30:48.717Z,10.83
2018-10-11T12:33:18.853Z,9.90
2018-10-11T12:35:47.458Z,9.67
2018-10-11T12:38:16.902Z,10.37
2018-10-11T12:40:46.176Z,9.80
2018-10-11T12:43:14.768Z,8.93
2018-10-11T12:45:44.685Z,9.20
2018-10-11T12:48:16.413Z,8.90
2018-10-11T12:50:46.514Z,9.27
2018-10-11T12:53:18.596Z,8.80
2018-10-11T12:55:48.086Z,8.97
2018-10-11T12:58:23.084Z,8.70
2018-10-11T13:00:56.177Z,8.20
2018-10-11T13:03:28.325Z,6.97
2018-10-11T13:05:56.842Z,6.50
2018-10-11T13:08:33.192Z,6.53
2018-10-11T13:11:07.342Z,6.47
2018-10-11T13:13:47.861Z,6.57
2018-10-11T13:16:18.197Z,6.37
2018-10-11T13:18:52.930Z,6.50
2018-10-11T13:21:35.607Z,6.70
2018-10-11T13:24:09.520Z,6.20
2018-10-11T13:26:39.718Z,6.40
2018-10-11T13:29:23.952Z,6.30
2018-10-11T13:31:53.420Z,6.60
2018-10-11T13:34:27.525Z,5.93
2018-10-11T13:36:59.244Z,5.97
2018-10-11T13:39:31.837Z,6.50
2018-10-11T13:42:05.720Z,5.70
2018-10-11T13:44:40.428Z,5.60
2018-10-11T13:47:13.030Z,5.83
2018-10-11T13:49:44.246Z,4.90
2018-10-11T13:52:22.513Z,5.80
2018-10-11T13:54:53.125Z,5.30
2018-10-11T13:57:26.846Z,5.40
2018-10-11T13:59:55.521Z,5.80
2018-10-11T14:02:25.905Z,5.73
2018-10-11T14:05:01.854Z,5.60
2018-10-11T14:07:30.564Z,5.20
2018-10-11T14:09:59.100Z,5.37
2018-10-11T14:12:27.618Z,4.70
2018-10-11T14:14:56.184Z,5.30
2018-10-11T14:17:24.689Z,5.70
2018-10-11T14:19:53.250Z,5.10
2018-10-11T14:22:21.755Z,5.13
2018-10-11T14:24:50.306Z,5.63
2018-10-11T14:27:18.800Z,5.23
2018-10-11T14:29:47.333Z,4.73
2018-10-11T14:32:15.844Z,5.43
2018-10-11T14:34:44.425Z,5.07
2018-10-11T14:37:13.157Z,4.83
2018-10-11T14:39:41.549Z,5.30
2018-10-11T14:42:10.271Z,5.13
2018-10-11T14:44:40.868Z,5.40
2018-10-11T14:47:09.389Z,5.20
2018-10-11T14:49:39.922Z,4.93
2018-10-11T14:52:08.620Z,5.20
2018-10-11T14:54:37.183Z,5.90
2018-10-11T14:57:08.374Z,5.17
2018-10-11T14:59:36.975Z,5.00
2018-10-11T15:02:05.436Z,4.90
2018-10-11T15:04:33.980Z,4.90
2018-10-11T15:07:06.135Z,4.73
2018-10-11T15:09:34.736Z,4.83
2018-10-11T15:12:03.278Z,4.40
2018-10-11T15:14:31.872Z,4.60
2018-10-11T15:17:00.903Z,4.70
2018-10-11T15:19:29.457Z,4.67
2018-10-11T15:21:58.526Z,4.60
2018-10-11T15:24:27.085Z,5.37
2018-10-11T15:26:56.636Z,5.37
2018-10-11T15:29:25.267Z,5.33
2018-10-11T15:31:53.763Z,6.50
2018-10-11T15:34:22.735Z,7.23
2018-10-11T15:36:51.396Z,7.33
2018-10-11T15:39:20.301Z,9.40
2018-10-11T15:41:49.709Z,9.27
2018-10-11T15:44:18.393Z,11.00
2018-10-11T15:46:47.255Z,12.40
2018-10-11T15:49:22.553Z,13.50
2018-10-11T15:51:51.372Z,17.70
2018-10-11T15:54:20.172Z,18.03
2018-10-11T15:56:50.840Z,19.77
2018-10-11T15:59:19.743Z,22.33
2018-10-11T16:01:48.454Z,20.23
2018-10-11T16:04:17.197Z,17.60
2018-10-11T16:06:46.733Z,21.63
2018-10-11T16:09:16.939Z,23.80
2018-10-11T16:11:46.825Z,19.60
2018-10-11T16:14:15.504Z,13.23
2018-10-11T16:16:44.200Z,13.33
2018-10-11T16:19:12.790Z,15.00
2018-10-11T16:21:42.026Z,11.33
2018-10-11T16:24:11.029Z,7.70
2018-10-11T16:26:39.618Z,5.17
2018-10-11T16:29:08.436Z,5.73
2018-10-11T16:31:36.982Z,5.23
2018-10-11T16:34:05.626Z,5.17
2018-10-11T16:36:37.162Z,5.33
2018-10-11T16:39:08.093Z,5.17
2018-10-11T16:41:36.753Z,5.30
2018-10-11T16:44:05.277Z,5.23
2018-10-11T16:46:34.356Z,6.30
2018-10-11T16:49:02.888Z,5.80
2018-10-11T16:51:31.548Z,6.07
2018-10-11T16:54:00.324Z,6.03
2018-10-11T16:56:28.920Z,6.23
2018-10-11T16:58:57.709Z,6.63
2018-10-11T17:01:26.221Z,6.17
2018-10-11T17:03:54.752Z,6.20
2018-10-11T17:06:25.717Z,6.30
2018-10-11T17:08:54.217Z,6.60
2018-10-11T17:11:22.772Z,7.00
2018-10-11T17:13:51.301Z,6.57
2018-10-11T17:16:20.001Z,6.73
2018-10-11T17:18:48.567Z,7.53
2018-10-11T17:21:17.092Z,6.60
2018-10-11T17:23:45.601Z,6.73
2018-10-11T17:26:14.142Z,7.20
2018-10-11T17:28:42.651Z,7.27
2018-10-11T17:31:11.189Z,7.23
2018-10-11T17:33:39.687Z,7.87
2018-10-11T17:36:08.224Z,7.30
2018-10-11T17:38:42.732Z,8.90
2018-10-11T17:41:11.517Z,8.13
2018-10-11T17:43:43.618Z,9.07
2018-10-11T17:46:12.204Z,9.10
2018-10-11T17:48:40.710Z,8.03
2018-10-11T17:51:09.265Z,8.90
2018-10-11T17:53:37.769Z,7.93
2018-10-11T17:56:06.302Z,8.10
2018-10-11T17:58:34.860Z,8.97
2018-10-11T18:01:03.380Z,8.63
2018-10-11T18:03:31.934Z,8.63
2018-10-11T18:06:00.746Z,8.60
2018-10-11T18:08:29.297Z,9.07
2018-10-11T18:10:57.798Z,8.23
2018-10-11T18:13:26.341Z,8.77
2018-10-11T18:15:54.966Z,8.73
2018-10-11T18:18:23.508Z,8.10
2018-10-11T18:20:52.013Z,8.20
2018-10-11T18:23:20.542Z,9.80
2018-10-11T18:25:49.053Z,9.30
2018-10-11T18:28:17.594Z,9.33
2018-10-11T18:30:46.101Z,9.90
2018-10-11T18:33:14.640Z,9.70
2018-10-11T18:35:43.218Z,9.53
2018-10-11T18:38:12.017Z,10.30
2018-10-11T18:40:40.542Z,10.43
2018-10-11T18:43:10.585Z,14.43
2018-10-11T18:45:39.148Z,20.57
2018-10-11T18:48:13.940Z,20.97
2018-10-11T18:50:47.609Z,22.37
2018-10-11T18:53:19.792Z,17.57
2018-10-11T18:55:51.271Z,12.50
2018-10-11T18:58:20.993Z,13.77
2018-10-11T19:00:50.825Z,13.63
2018-10-11T19:03:20.621Z,13.33
2018-10-11T19:05:50.699Z,13.43
2018-10-11T19:08:20.565Z,14.13
2018-10-11T19:10:51.909Z,16.00
2018-10-11T19:13:21.720Z,15.30
2018-10-11T19:15:51.778Z,21.60
2018-10-11T19:18:21.493Z,14.50
2018-10-11T19:20:51.604Z,13.90
2018-10-11T19:23:27.235Z,14.17
2018-10-11T19:25:57.733Z,12.50
2018-10-11T19:28:31.467Z,13.57
2018-10-11T19:31:00.851Z,13.57
2018-10-11T19:33:30.816Z,15.23
2018-10-11T19:36:09.725Z,14.63
2018-10-11T19:38:44.335Z,13.83
2018-10-11T19:41:18.987Z,16.30
2018-10-11T19:43:49.617Z,16.30
2018-10-11T19:46:20.197Z,16.43
2018-10-11T19:48:49.864Z,17.00
2018-10-11T19:51:21.124Z,16.97
2018-10-11T19:53:55.483Z,16.93
2018-10-11T19:56:25.407Z,16.00
2018-10-11T19:58:57.472Z,16.70
2018-10-11T20:01:31.022Z,17.03
2018-10-11T20:04:07.153Z,16.47
2018-10-11T20:06:38.037Z,17.00
2018-10-11T20:09:10.613Z,15.97
2018-10-11T20:11:42.238Z,17.47
2018-10-11T20:14:13.357Z,16.03
2018-10-11T20:16:41.882Z,16.60
2018-10-11T20:19:10.578Z,16.33
2018-10-11T20:21:39.811Z,17.40
2018-10-11T20:24:12.969Z,16.83
2018-10-11T20:26:49.062Z,16.67
2018-10-11T20:29:19.333Z,14.67
2018-10-11T20:31:49.487Z,16.17
2018-10-11T20:34:23.424Z,15.47
2018-10-11T20:36:56.881Z,15.37
2018-10-11T20:39:25.501Z,13.70
2018-10-11T20:41:55.648Z,12.93
2018-10-11T20:44:24.271Z,12.63
2018-10-11T20:46:53.436Z,12.23
2018-10-11T20:49:22.291Z,12.43
2018-10-11T20:51:53.243Z,13.63
2018-10-11T20:54:22.157Z,12.30
2018-10-11T20:56:52.355Z,12.60
2018-10-11T20:59:21.637Z,12.83
2018-10-11T21:01:54.622Z,12.13
2018-10-11T21:04:24.230Z,13.40
2018-10-11T21:06:53.202Z,13.23
2018-10-11T21:09:27.704Z,14.33
2018-10-11T21:12:00.213Z,12.87
2018-10-11T21:14:30.029Z,13.07
2018-10-11T21:16:59.726Z,14.47
2018-10-11T21:19:29.041Z,14.03
2018-10-11T21:21:57.684Z,15.03
2018-10-11T21:24:27.441Z,13.20
2018-10-11T21:27:01.728Z,14.47
2018-10-11T21:29:30.500Z,15.20
2018-10-11T21:32:00.068Z,15.30
2018-10-11T21:34:29.798Z,13.73
2018-10-11T21:36:59.207Z,13.07
2018-10-11T21:39:28.204Z,14.37
2018-10-11T21:41:56.955Z,15.67
2018-10-11T21:44:27.158Z,13.97
2018-10-11T21:46:57.129Z,15.13
2018-10-11T21:49:26.177Z,15.70
2018-10-11T21:51:54.702Z,16.17
2018-10-11T21:54:25.239Z,17.07
2018-10-11T21:56:55.909Z,14.87
2018-10-11T21:59:24.864Z,16.57
2018-10-11T22:01:54.529Z,15.80
2018-10-11T22:04:24.239Z,15.47
2018-10-11T22:06:53.900Z,15.57
2018-10-11T22:09:23.257Z,15.17
2018-10-11T22:11:52.067Z,14.23
2018-10-11T22:14:21.679Z,15.47
2018-10-11T22:16:51.676Z,17.50
2018-10-11T22:19:20.356Z,17.80
2018-10-11T22:21:49.493Z,18.97
2018-10-11T22:24:18.605Z,15.83
2018-10-11T22:26:47.547Z,16.37
2018-10-11T22:29:17.343Z,17.03
2018-10-11T22:31:46.596Z,17.27
2018-10-11T22:34:15.156Z,18.37
2018-10-11T22:36:44.188Z,17.90
2018-10-11T22:39:13.660Z,18.20
2018-10-11T22:41:42.704Z,16.57
2018-10-11T22:44:12.698Z,18.50
2018-10-11T22:46:42.780Z,18.47
2018-10-11T22:49:11.561Z,18.63
2018-10-11T22:51:40.749Z,19.70
2018-10-11T22:54:11.769Z,21.07
2018-10-11T22:56:40.424Z,20.30
2018-10-11T22:59:09.600Z,17.60
2018-10-11T23:01:38.817Z,20.23
2018-10-11T23:04:08.293Z,17.40
2018-10-11T23:06:37.766Z,18.07
2018-10-11T23:09:09.324Z,18.77
2018-10-11T23:11:39.729Z,18.17
2018-10-11T23:14:09.516Z,20.93
2018-10-11T23:16:38.055Z,20.67
2018-10-11T23:19:06.613Z,18.57
2018-10-11T23:21:35.156Z,21.50
2018-10-11T23:24:03.692Z,18.40
2018-10-11T23:26:32.244Z,19.83
2018-10-11T23:29:00.748Z,18.67
2018-10-11T23:31:29.288Z,17.20
2018-10-11T23:33:57.787Z,18.70
2018-10-11T23:36:26.344Z,20.03
2018-10-11T23:38:54.868Z,18.40
2018-10-11T23:41:23.409Z,21.43
2018-10-11T23:43:51.920Z,20.60
2018-10-11T23:46:20.480Z,19.53
2018-10-11T23:48:48.988Z,18.77
2018-10-11T23:51:17.517Z,18.73
2018-10-11T23:53:46.042Z,20.03
2018-10-11T23:56:14.921Z,19.00
2018-10-11T23:58:43.433Z,18.33
